createdAt,value
2022-11-20T00:01:32.606Z,79.14
2022-11-20T00:04:00.259Z,79.16
2022-11-20T00:06:28.571Z,79.16
2022-11-20T00:08:57.919Z,79.16
2022-11-20T00:11:27.639Z,79.18
2022-11-20T00:13:58.086Z,79.23
2022-11-20T00:16:27.605Z,79.31
2022-11-20T00:18:55.165Z,79.37
2022-11-20T00:21:24.021Z,79.43
2022-11-20T00:23:54.921Z,79.52
2022-11-20T00:26:23.469Z,79.61
2022-11-20T00:28:53.438Z,79.68
2022-11-20T00:31:20.829Z,79.75
2022-11-20T00:33:47.877Z,79.81
2022-11-20T00:36:18.893Z,79.83
2022-11-20T00:38:46.317Z,79.90
2022-11-20T00:41:15.563Z,79.96
2022-11-20T00:43:42.824Z,80.02
2022-11-20T00:46:17.887Z,80.04
2022-11-20T00:48:45.729Z,80.10
2022-11-20T00:51:15.565Z,80.18
2022-11-20T00:53:42.464Z,80.26
2022-11-20T00:56:12.631Z,80.31
2022-11-20T00:58:42.051Z,80.38
2022-11-20T01:01:14.811Z,80.44
2022-11-20T01:03:47.327Z,80.54
2022-11-20T01:06:19.505Z,80.58
2022-11-20T01:08:47.189Z,80.65
2022-11-20T01:11:16.070Z,80.72
2022-11-20T01:13:44.082Z,80.78
2022-11-20T01:16:20.192Z,80.83
2022-11-20T01:18:48.897Z,80.88
2022-11-20T01:21:18.845Z,80.95
2022-11-20T01:23:46.583Z,80.99
2022-11-20T01:26:15.685Z,81.02
2022-11-20T01:28:43.241Z,81.07
2022-11-20T01:31:20.495Z,81.09
2022-11-20T01:33:48.972Z,81.13
2022-11-20T01:36:17.081Z,81.16
2022-11-20T01:38:44.187Z,81.21
2022-11-20T01:41:33.323Z,81.24
2022-11-20T01:44:00.956Z,81.26
2022-11-20T01:46:28.579Z,81.28
2022-11-20T01:48:55.086Z,81.34
2022-11-20T01:51:34.444Z,81.34
2022-11-20T01:54:06.470Z,81.38
2022-11-20T01:56:37.964Z,81.44
2022-11-20T01:59:08.479Z,81.46
2022-11-20T02:01:35.468Z,81.49
2022-11-20T02:04:03.505Z,81.53
2022-11-20T02:06:36.061Z,81.58
2022-11-20T02:09:03.220Z,81.62
2022-11-20T02:11:31.880Z,81.65
2022-11-20T02:13:59.982Z,81.70
2022-11-20T02:16:29.862Z,81.73
2022-11-20T02:18:59.634Z,81.77
2022-11-20T02:21:47.982Z,81.82
2022-11-20T02:24:16.641Z,81.81
2022-11-20T02:26:57.206Z,81.83
2022-11-20T02:29:33.968Z,81.84
2022-11-20T02:32:02.473Z,81.87
2022-11-20T02:34:29.920Z,81.86
2022-11-20T02:36:58.559Z,81.86
2022-11-20T02:39:27.940Z,81.88
2022-11-20T02:41:56.918Z,81.91
2022-11-20T02:44:23.792Z,81.93
2022-11-20T02:46:50.456Z,81.94
2022-11-20T02:49:18.015Z,81.97
2022-11-20T02:51:44.996Z,81.97
2022-11-20T02:54:11.758Z,82.00
2022-11-20T02:56:40.051Z,82.01
2022-11-20T02:59:07.505Z,82.01
2022-11-20T03:01:34.241Z,82.05
2022-11-20T03:04:01.490Z,82.10
2022-11-20T03:06:28.158Z,82.12
2022-11-20T03:08:54.821Z,82.15
2022-11-20T03:11:21.742Z,82.19
2022-11-20T03:13:48.421Z,82.21
2022-11-20T03:16:19.356Z,82.23
2022-11-20T03:18:46.478Z,82.24
2022-11-20T03:21:14.291Z,82.26
2022-11-20T03:23:41.283Z,82.29
2022-11-20T03:26:14.217Z,82.30
2022-11-20T03:28:41.295Z,82.33
2022-11-20T03:31:13.892Z,82.38
2022-11-20T03:33:41.798Z,82.39
2022-11-20T03:36:12.779Z,82.42
2022-11-20T03:38:40.118Z,82.44
2022-11-20T03:41:11.992Z,82.46
2022-11-20T03:43:40.000Z,82.47
2022-11-20T03:46:07.923Z,82.49
2022-11-20T03:48:34.988Z,82.52
2022-11-20T03:51:13.802Z,82.54
2022-11-20T03:53:41.731Z,82.53
2022-11-20T03:56:09.686Z,82.57
2022-11-20T03:58:38.318Z,82.58
2022-11-20T04:01:07.449Z,82.61
2022-11-20T04:03:35.102Z,82.64
2022-11-20T04:06:12.194Z,82.65
2022-11-20T04:08:39.717Z,82.67
2022-11-20T04:11:14.685Z,82.68
2022-11-20T04:13:43.243Z,82.69
2022-11-20T04:16:10.793Z,82.72
2022-11-20T04:18:37.481Z,82.74
2022-11-20T04:21:05.993Z,82.76
2022-11-20T04:23:32.646Z,82.78
2022-11-20T04:26:17.922Z,82.81
2022-11-20T04:28:44.911Z,82.82
2022-11-20T04:31:14.314Z,82.82
2022-11-20T04:33:41.612Z,82.84
2022-11-20T04:36:12.857Z,82.88
2022-11-20T04:38:40.139Z,82.92
2022-11-20T04:41:09.451Z,82.91
2022-11-20T04:43:36.619Z,82.90
2022-11-20T04:46:03.271Z,82.92
2022-11-20T04:48:30.818Z,82.95
2022-11-20T04:50:58.564Z,82.97
2022-11-20T04:53:25.407Z,82.98
2022-11-20T04:55:52.032Z,83.00
2022-11-20T04:58:18.954Z,83.05
2022-11-20T05:00:45.706Z,83.13
2022-11-20T05:03:12.344Z,83.22
2022-11-20T05:05:39.239Z,83.25
2022-11-20T05:08:05.909Z,83.29
2022-11-20T05:10:32.533Z,83.29
2022-11-20T05:12:59.459Z,83.29
2022-11-20T05:15:26.240Z,83.34
2022-11-20T05:17:53.849Z,83.40
2022-11-20T05:20:21.023Z,83.45
2022-11-20T05:22:47.825Z,83.48
2022-11-20T05:25:14.543Z,83.49
2022-11-20T05:27:41.483Z,83.49
2022-11-20T05:30:09.171Z,83.52
2022-11-20T05:32:35.791Z,83.55
2022-11-20T05:35:02.680Z,83.58
2022-11-20T05:37:29.469Z,83.62
2022-11-20T05:39:56.200Z,83.67
2022-11-20T05:42:31.971Z,83.70
2022-11-20T05:44:59.863Z,83.75
2022-11-20T05:47:28.217Z,83.78
2022-11-20T05:49:55.368Z,83.81
2022-11-20T05:52:22.136Z,83.83
2022-11-20T05:54:49.125Z,83.84
2022-11-20T05:57:15.876Z,83.87
2022-11-20T05:59:42.528Z,83.89
2022-11-20T06:02:09.557Z,83.91
2022-11-20T06:04:36.508Z,83.94
2022-11-20T06:07:03.496Z,83.96
2022-11-20T06:09:30.393Z,83.96
2022-11-20T06:11:57.339Z,83.97
2022-11-20T06:14:24.117Z,83.97
2022-11-20T06:16:50.787Z,84.00
2022-11-20T06:19:17.781Z,83.98
2022-11-20T06:21:44.428Z,83.96
2022-11-20T06:24:11.810Z,83.94
2022-11-20T06:26:38.710Z,83.91
2022-11-20T06:29:05.348Z,83.84
2022-11-20T06:31:35.876Z,83.80
2022-11-20T06:34:02.820Z,83.78
2022-11-20T06:36:29.557Z,83.71
2022-11-20T06:38:56.296Z,83.69
2022-11-20T06:41:23.741Z,83.66
2022-11-20T06:43:50.933Z,83.60
2022-11-20T06:46:19.157Z,83.56
2022-11-20T06:48:47.452Z,83.52
2022-11-20T06:51:14.504Z,83.46
2022-11-20T06:53:41.290Z,83.41
2022-11-20T06:56:08.974Z,83.35
2022-11-20T06:58:36.891Z,83.29
2022-11-20T07:01:06.860Z,83.23
2022-11-20T07:03:34.139Z,83.17
2022-11-20T07:06:02.169Z,83.08
2022-11-20T07:08:29.999Z,83.02
2022-11-20T07:11:01.653Z,82.98
2022-11-20T07:13:30.079Z,82.90
2022-11-20T07:16:05.028Z,82.86
2022-11-20T07:18:31.862Z,82.80
2022-11-20T07:21:11.024Z,82.76
2022-11-20T07:23:38.355Z,82.78
2022-11-20T07:26:07.421Z,82.73
2022-11-20T07:28:34.504Z,82.54
2022-11-20T07:31:01.434Z,82.41
2022-11-20T07:33:28.369Z,82.34
2022-11-20T07:35:55.039Z,82.35
2022-11-20T07:38:21.736Z,82.30
2022-11-20T07:40:48.736Z,82.26
2022-11-20T07:43:15.383Z,82.23
2022-11-20T07:45:42.738Z,82.15
2022-11-20T07:48:09.649Z,82.06
2022-11-20T07:50:36.265Z,82.00
2022-11-20T07:53:06.427Z,81.96
2022-11-20T07:55:33.894Z,81.90
2022-11-20T07:58:00.931Z,81.76
2022-11-20T08:00:27.849Z,81.66
2022-11-20T08:02:54.979Z,81.54
2022-11-20T08:05:21.676Z,81.43
2022-11-20T08:07:48.467Z,81.38
2022-11-20T08:10:17.201Z,81.31
2022-11-20T08:13:07.750Z,81.24
2022-11-20T08:15:35.306Z,81.13
2022-11-20T08:20:54.602Z,80.88
2022-11-20T08:23:21.305Z,80.70
2022-11-20T08:25:51.611Z,80.67
2022-11-20T08:28:21.743Z,80.62
2022-11-20T08:30:51.011Z,80.58
2022-11-20T08:33:19.226Z,80.47
2022-11-20T08:35:46.488Z,80.49
2022-11-20T08:38:13.198Z,80.48
2022-11-20T08:40:40.100Z,80.54
2022-11-20T08:43:06.723Z,80.54
2022-11-20T08:45:35.048Z,80.50
2022-11-20T08:48:04.107Z,80.41
2022-11-20T08:50:33.147Z,80.25
2022-11-20T08:53:06.534Z,80.22
2022-11-20T08:55:36.237Z,80.20
2022-11-20T08:58:06.481Z,80.09
2022-11-20T09:00:34.168Z,80.03
2022-11-20T09:03:02.179Z,80.00
2022-11-20T09:05:29.156Z,79.96
2022-11-20T09:08:00.063Z,79.88
2022-11-20T09:10:27.809Z,79.92
2022-11-20T09:12:56.322Z,79.91
2022-11-20T09:15:25.006Z,79.92
2022-11-20T09:17:59.833Z,79.92
2022-11-20T09:20:29.613Z,79.96
2022-11-20T09:22:57.318Z,79.96
2022-11-20T09:25:24.312Z,79.96
2022-11-20T09:27:59.017Z,79.89
2022-11-20T09:30:26.886Z,79.83
2022-11-20T09:32:53.887Z,79.77
2022-11-20T09:35:20.585Z,79.72
2022-11-20T09:37:47.450Z,79.68
2022-11-20T09:40:26.552Z,79.61
2022-11-20T09:42:59.225Z,79.62
2022-11-20T09:45:35.350Z,79.61
2022-11-20T09:48:26.859Z,79.64
2022-11-20T09:51:05.938Z,79.68
2022-11-20T09:53:41.932Z,79.66
2022-11-20T09:56:11.991Z,79.72
2022-11-20T09:58:48.572Z,79.68
2022-11-20T10:01:21.608Z,79.69
2022-11-20T10:03:55.299Z,79.67
2022-11-20T10:06:30.721Z,79.71
2022-11-20T10:09:15.196Z,79.74
2022-11-20T10:12:19.473Z,79.76
2022-11-20T10:15:05.134Z,79.81
2022-11-20T10:17:45.379Z,79.78
2022-11-20T10:20:40.676Z,79.76
2022-11-20T10:23:26.125Z,79.82
2022-11-20T10:26:03.696Z,79.72
2022-11-20T10:28:55.423Z,79.72
2022-11-20T10:31:34.880Z,79.78
2022-11-20T10:34:13.072Z,79.71
2022-11-20T10:36:46.847Z,79.75
2022-11-20T10:39:31.042Z,79.74
2022-11-20T10:41:58.311Z,79.80
2022-11-20T10:44:50.221Z,79.79
2022-11-20T10:47:22.049Z,79.76
2022-11-20T10:49:54.114Z,79.74
2022-11-20T10:52:55.556Z,79.64
2022-11-20T10:55:40.121Z,79.63
2022-11-20T10:58:25.840Z,79.72
2022-11-20T11:00:52.563Z,79.73
2022-11-20T11:03:31.834Z,79.67
2022-11-20T11:06:09.113Z,79.75
2022-11-20T11:08:41.074Z,79.80
2022-11-20T11:11:22.347Z,79.86
2022-11-20T11:13:49.298Z,79.92
2022-11-20T11:16:27.888Z,79.99
2022-11-20T11:19:16.932Z,80.01
2022-11-20T11:21:56.031Z,80.05
2022-11-20T11:24:42.584Z,80.06
2022-11-20T11:27:17.331Z,80.12
2022-11-20T11:29:45.453Z,80.18
2022-11-20T11:32:19.577Z,80.29
2022-11-20T11:34:46.487Z,80.30
2022-11-20T11:37:20.673Z,80.32
2022-11-20T11:39:55.103Z,80.39
2022-11-20T11:42:31.402Z,80.49
2022-11-20T11:45:07.354Z,80.52
2022-11-20T11:47:43.802Z,80.57
2022-11-20T11:50:10.699Z,80.59
2022-11-20T11:52:46.598Z,80.64
2022-11-20T11:55:22.399Z,80.74
2022-11-20T11:58:25.640Z,80.84
2022-11-20T12:01:01.596Z,80.85
2022-11-20T12:03:38.314Z,80.92
2022-11-20T12:06:15.394Z,80.98
2022-11-20T12:08:58.599Z,81.05
2022-11-20T12:11:54.578Z,81.17
2022-11-20T12:14:29.554Z,81.21
2022-11-20T12:16:58.525Z,81.39
2022-11-20T12:19:26.508Z,81.38
2022-11-20T12:22:08.392Z,81.40
2022-11-20T12:24:50.700Z,81.44
2022-11-20T12:27:53.283Z,81.55
2022-11-20T12:30:21.870Z,81.62
2022-11-20T12:33:19.896Z,81.78
2022-11-20T12:36:05.149Z,81.81
2022-11-20T12:38:59.362Z,81.90
2022-11-20T12:42:11.030Z,81.98
2022-11-20T12:45:11.632Z,82.03
2022-11-20T12:47:44.532Z,82.11
2022-11-20T12:50:30.586Z,82.25
2022-11-20T12:53:10.420Z,82.25
2022-11-20T12:55:48.262Z,82.36
2022-11-20T12:58:40.584Z,82.43
2022-11-20T13:01:42.087Z,82.49
2022-11-20T13:04:36.912Z,82.52
2022-11-20T13:07:07.630Z,82.62
2022-11-20T13:09:40.649Z,82.73
2022-11-20T13:12:13.141Z,82.84
2022-11-20T13:14:45.665Z,82.95
2022-11-20T13:17:22.640Z,83.05
2022-11-20T13:19:59.756Z,83.13
2022-11-20T13:22:43.326Z,83.17
2022-11-20T13:25:16.336Z,83.25
2022-11-20T13:27:50.073Z,83.32
2022-11-20T13:30:20.751Z,83.39
2022-11-20T13:33:00.973Z,83.48
2022-11-20T13:35:30.680Z,83.56
2022-11-20T13:38:15.335Z,83.66
2022-11-20T13:41:24.738Z,83.68
2022-11-20T13:43:53.192Z,83.78
2022-11-20T13:46:25.350Z,83.89
2022-11-20T13:48:54.863Z,83.92
2022-11-20T13:51:31.076Z,83.97
2022-11-20T13:54:19.317Z,84.05
2022-11-20T13:57:05.362Z,84.14
2022-11-20T13:59:44.774Z,84.13
2022-11-20T14:02:15.327Z,84.21
2022-11-20T14:04:53.425Z,84.26
2022-11-20T14:07:22.756Z,84.26
2022-11-20T14:09:55.334Z,84.34
2022-11-20T14:12:30.628Z,84.37
2022-11-20T14:14:57.816Z,84.40
2022-11-20T14:17:34.568Z,84.48
2022-11-20T14:20:15.669Z,84.52
2022-11-20T14:22:49.926Z,84.57
2022-11-20T14:25:16.875Z,84.63
2022-11-20T14:27:48.953Z,84.69
2022-11-20T14:30:17.413Z,84.74
2022-11-20T14:32:46.079Z,84.76
2022-11-20T14:35:25.303Z,84.81
2022-11-20T14:37:53.004Z,84.84
2022-11-20T14:40:36.551Z,84.90
2022-11-20T14:43:22.399Z,84.92
2022-11-20T14:46:01.112Z,84.96
2022-11-20T14:48:44.368Z,84.97
2022-11-20T14:51:13.145Z,85.01
2022-11-20T14:53:40.229Z,85.02
2022-11-20T14:56:06.931Z,85.06
2022-11-20T14:58:34.621Z,85.11
2022-11-20T15:01:07.019Z,85.14
2022-11-20T15:03:34.577Z,85.13
2022-11-20T15:06:02.061Z,85.04
2022-11-20T15:08:28.780Z,85.14
2022-11-20T15:10:56.503Z,85.15
2022-11-20T15:13:35.488Z,85.16
2022-11-20T15:16:03.666Z,85.18
2022-11-20T15:18:38.908Z,85.22
2022-11-20T15:21:12.023Z,85.20
2022-11-20T15:23:39.380Z,85.22
2022-11-20T15:26:07.528Z,85.25
2022-11-20T15:28:36.646Z,85.28
2022-11-20T15:31:05.137Z,85.29
2022-11-20T15:33:33.585Z,85.31
2022-11-20T15:36:01.440Z,85.32
2022-11-20T15:38:28.385Z,85.32
2022-11-20T15:40:55.020Z,85.33
2022-11-20T15:43:21.790Z,85.32
2022-11-20T15:45:51.829Z,85.35
2022-11-20T15:48:25.621Z,85.36
2022-11-20T15:51:11.165Z,85.36
2022-11-20T15:53:41.936Z,85.36
2022-11-20T15:56:15.659Z,85.36
2022-11-20T15:58:42.711Z,85.35
2022-11-20T16:01:12.778Z,85.35
2022-11-20T16:03:39.872Z,85.34
2022-11-20T16:06:06.772Z,85.35
2022-11-20T16:08:33.801Z,85.36
2022-11-20T16:11:01.000Z,85.40
2022-11-20T16:13:46.204Z,85.44
2022-11-20T16:16:22.009Z,85.46
2022-11-20T16:18:49.017Z,85.49
2022-11-20T16:21:16.043Z,85.54
2022-11-20T16:23:43.601Z,85.57
2022-11-20T16:26:12.647Z,85.59
2022-11-20T16:28:39.898Z,85.65
2022-11-20T16:31:14.717Z,85.68
2022-11-20T16:33:41.955Z,85.71
2022-11-20T16:36:14.728Z,85.74
2022-11-20T16:38:42.749Z,85.77
2022-11-20T16:41:15.784Z,85.82
2022-11-20T16:43:50.475Z,85.88
2022-11-20T16:46:19.846Z,85.91
2022-11-20T16:48:57.133Z,85.94
2022-11-20T16:51:24.892Z,85.99
2022-11-20T16:53:53.400Z,86.05
2022-11-20T16:56:21.946Z,86.10
2022-11-20T16:58:49.904Z,86.15
2022-11-20T17:01:20.893Z,86.21
2022-11-20T17:03:54.579Z,86.26
2022-11-20T17:06:27.346Z,86.29
2022-11-20T17:08:55.455Z,86.32
2022-11-20T17:11:23.250Z,86.35
2022-11-20T17:13:50.281Z,86.40
2022-11-20T17:16:20.461Z,86.46
2022-11-20T17:18:49.930Z,86.53
2022-11-20T17:21:18.222Z,86.54
2022-11-20T17:23:46.187Z,86.59
2022-11-20T17:26:17.714Z,86.64
2022-11-20T17:28:46.263Z,86.69
2022-11-20T17:31:17.500Z,86.72
2022-11-20T17:33:45.798Z,86.78
2022-11-20T17:36:16.318Z,86.81
2022-11-20T17:38:44.567Z,86.85
2022-11-20T17:41:14.187Z,86.89
2022-11-20T17:43:42.795Z,86.94
2022-11-20T17:46:32.948Z,86.98
2022-11-20T17:49:00.083Z,87.00
2022-11-20T17:51:32.743Z,87.01
2022-11-20T17:54:01.910Z,87.02
2022-11-20T17:56:56.885Z,87.05
2022-11-20T17:59:23.704Z,87.06
2022-11-20T18:01:50.820Z,87.08
2022-11-20T18:04:18.013Z,87.13
2022-11-20T18:06:45.101Z,87.15
2022-11-20T18:09:12.254Z,87.14
2022-11-20T18:11:41.036Z,87.17
2022-11-20T18:14:32.241Z,87.21
2022-11-20T18:17:01.485Z,87.27
2022-11-20T18:19:36.512Z,87.30
2022-11-20T18:22:08.039Z,87.33
2022-11-20T18:24:39.601Z,87.37
2022-11-20T18:27:07.681Z,87.40
2022-11-20T18:29:36.353Z,87.41
2022-11-20T18:32:06.335Z,87.44
2022-11-20T18:34:33.103Z,87.47
2022-11-20T18:37:00.086Z,87.53
2022-11-20T18:39:29.272Z,87.54
2022-11-20T18:42:14.806Z,87.56
2022-11-20T18:44:51.457Z,87.58
2022-11-20T18:47:23.767Z,87.57
2022-11-20T18:49:57.152Z,87.63
2022-11-20T18:52:30.233Z,87.68
2022-11-20T18:54:57.403Z,87.70
2022-11-20T18:57:27.033Z,87.71
2022-11-20T18:59:54.902Z,87.76
2022-11-20T19:02:22.956Z,87.80
2022-11-20T19:04:49.686Z,87.80
2022-11-20T19:07:16.966Z,87.81
2022-11-20T19:09:48.498Z,87.83
2022-11-20T19:12:15.956Z,87.85
2022-11-20T19:14:45.556Z,87.86
2022-11-20T19:17:14.581Z,87.87
2022-11-20T19:19:41.536Z,87.90
2022-11-20T19:22:09.416Z,87.94
2022-11-20T19:24:36.555Z,87.95
2022-11-20T19:27:03.370Z,87.97
2022-11-20T19:29:30.604Z,88.01
2022-11-20T19:31:58.232Z,88.04
2022-11-20T19:34:28.156Z,88.07
2022-11-20T19:36:54.963Z,88.11
2022-11-20T19:39:23.184Z,88.13
2022-11-20T19:41:50.488Z,88.16
2022-11-20T19:44:19.364Z,88.18
2022-11-20T19:46:50.895Z,88.18
2022-11-20T19:49:17.925Z,88.09
2022-11-20T19:51:50.994Z,88.18
2022-11-20T19:54:19.855Z,88.20
2022-11-20T19:56:50.594Z,88.24
2022-11-20T19:59:17.399Z,88.31
2022-11-20T20:01:44.523Z,88.34
2022-11-20T20:04:11.639Z,88.39
2022-11-20T20:06:41.595Z,88.40
2022-11-20T20:09:13.446Z,88.39
2022-11-20T20:11:40.732Z,88.42
2022-11-20T20:14:13.588Z,88.33
2022-11-20T20:16:41.311Z,88.44
2022-11-20T20:19:08.048Z,88.48
2022-11-20T20:21:36.276Z,88.49
2022-11-20T20:24:05.851Z,88.54
2022-11-20T20:26:33.036Z,88.56
2022-11-20T20:29:01.742Z,88.54
2022-11-20T20:31:30.657Z,88.56
2022-11-20T20:34:00.320Z,88.59
2022-11-20T20:36:27.172Z,88.61
2022-11-20T20:39:04.695Z,88.62
2022-11-20T20:41:32.154Z,88.62
2022-11-20T20:44:17.940Z,88.64
2022-11-20T20:46:44.799Z,88.69
2022-11-20T20:49:12.313Z,88.70
2022-11-20T20:51:38.969Z,88.74
2022-11-20T20:54:05.781Z,88.72
2022-11-20T20:56:32.924Z,88.76
2022-11-20T20:58:59.704Z,88.78
2022-11-20T21:01:28.941Z,88.79
2022-11-20T21:03:57.048Z,88.80
2022-11-20T21:06:24.490Z,88.82
2022-11-20T21:08:51.428Z,88.85
2022-11-20T21:11:20.468Z,88.86
2022-11-20T21:13:48.443Z,88.88
2022-11-20T21:16:17.348Z,88.89
2022-11-20T21:18:44.685Z,88.91
2022-11-20T21:21:34.710Z,88.93
2022-11-20T21:24:02.868Z,88.94
2022-11-20T21:26:29.630Z,88.93
2022-11-20T21:28:59.084Z,88.92
2022-11-20T21:31:27.297Z,88.93
2022-11-20T21:33:56.165Z,88.95
2022-11-20T21:36:25.365Z,88.95
2022-11-20T21:38:54.890Z,88.96
2022-11-20T21:41:23.099Z,88.99
2022-11-20T21:46:43.474Z,89.03
2022-11-20T21:49:10.720Z,89.04
2022-11-20T21:51:37.708Z,89.03
2022-11-20T21:54:05.032Z,89.01
2022-11-20T21:56:31.711Z,89.00
2022-11-20T21:58:58.899Z,88.97
2022-11-20T22:01:28.377Z,88.99
2022-11-20T22:04:01.066Z,89.01
2022-11-20T22:06:33.017Z,89.04
2022-11-20T22:09:01.062Z,89.06
2022-11-20T22:11:27.815Z,89.05
2022-11-20T22:14:12.856Z,89.07
2022-11-20T22:16:39.923Z,89.07
2022-11-20T22:19:07.296Z,89.04
2022-11-20T22:21:34.518Z,89.04
2022-11-20T22:24:02.124Z,89.04
2022-11-20T22:26:33.805Z,89.07
2022-11-20T22:29:03.455Z,89.06
2022-11-20T22:31:31.232Z,89.07
2022-11-20T22:34:00.951Z,89.08
2022-11-20T22:36:29.940Z,89.09
2022-11-20T22:38:57.295Z,89.15
2022-11-20T22:41:27.818Z,89.17
2022-11-20T22:43:59.267Z,89.16
2022-11-20T22:46:27.359Z,89.22
2022-11-20T22:48:59.675Z,89.24
2022-11-20T22:51:27.277Z,89.26
2022-11-20T22:53:54.259Z,89.22
2022-11-20T22:56:21.969Z,89.29
2022-11-20T22:58:51.149Z,89.30
2022-11-20T23:01:19.236Z,89.28
2022-11-20T23:03:48.345Z,89.28
2022-11-20T23:06:16.304Z,89.30
2022-11-20T23:08:43.433Z,89.30
2022-11-20T23:11:16.352Z,89.33
2022-11-20T23:13:44.685Z,89.37
2022-11-20T23:16:19.980Z,89.39
2022-11-20T23:18:46.970Z,89.43
2022-11-20T23:21:16.249Z,89.45
2022-11-20T23:23:47.359Z,89.44
2022-11-20T23:26:15.868Z,89.46
2022-11-20T23:28:43.438Z,89.48
2022-11-20T23:31:12.065Z,89.50
2022-11-20T23:33:40.751Z,89.52
2022-11-20T23:36:08.246Z,89.53
2022-11-20T23:38:35.072Z,89.54
2022-11-20T23:41:02.569Z,89.55
2022-11-20T23:43:29.444Z,89.52
2022-11-20T23:45:58.101Z,89.53
2022-11-20T23:48:28.177Z,89.56
2022-11-20T23:50:55.312Z,89.60
2022-11-20T23:53:23.127Z,89.61
2022-11-20T23:55:52.672Z,89.59
2022-11-20T23:58:20.832Z,89.59
